Retreat, Indiana
Current Conditions -  °F | °C
As of 4:58 PM on Friday 24 Oct 2014 (Local Time) from KBAK Reporting Station
Few Clouds Few Clouds  
Wind Chill: 64°   Ceiling: Unl
Heat Index: 64°   Visibility: 10mi
Dew Point: 48°   Wind: 6mph
Humidity: 56%   Direction: 160°SSE
Pressure: 30.03"   Gusts: NA
Location:  38.8084°N, 85.8627°W
Report Text: KBAK 242058Z 16005KT 10SM FEW200 18/09 A3003
Loading
Personal Weather Stations






























Interactive Weather Map
Tropical Storm Tracking
New forecast layout! Learn more

10-Day Weather Forecast

Advertisements
Track Severe Weather on mobile